Tick to Auto Refresh live results:

Rob Roy 14m Finish

Click the heading to sort the table. Use shift to select more than one field to sort. Use the search box to search or filter the table.


Problems? Contact us. kitst at kitst dot co dot uk

BibA.FnameA.LnameChipTimeGenderTypeRANK
BibA.FnameA.LnameChipTimeGenderTypeRANK
311ColinTees02:15:55M#letsdomarketing 70m1
414GeoffHutton02:28:33MRobRoy 14m2
454SarahOToole02:33:06FRobRoy 14m3
415JulianIde02:33:17MTeam Yana 14m4
413PaulHughes02:34:30MTeam Yana 14m5
425NicolaLawson02:34:53FRobRoy 14m6
460JohnPickard02:34:58MTeam Yana 14m7
371MarkCho02:49:29MLegg Mason 14m8
389JamesDrysdale02:56:01MRobRoy 14m9
441EdwardMitchell02:56:02MRobRoy 14m10
462TylerPorterfield02:59:30MLegg Mason 14m11
357LiamBrown03:09:16MThe ACE Academy 14m12
437FionaMcLeod03:11:32FRobRoy 14m13
251KatieMitchell03:15:58MRobRoy 70m14
61IanMills03:17:55MExceed Trust 49m15
344AliciaBailey03:18:34FRobRoy 14m16
359KeithBurdon03:22:05MRobRoy 14m17
476TerryThompson03:22:38MRobRoy 14m18
402RichardGillham03:30:05MRobRoy 14m19
348DianaBatty03:30:39FWon't get lost this time! 14m20
457LindaPaton03:37:02FRobRoy 14m21
450RhonaNeill03:37:07FRobRoy 14m22
378WilliamColeman03:42:25MRobRoy 14m23
395NevilleFernandes03:42:25M#Ops_on_the_drops 14m24
392CarolineEvans03:45:39FSLAinte 14m25
409JamesHolder03:49:52M#letsdomarketing 14m26
373FionaChristine03:54:16FSLAinte 14m27
497StuartEdnie03:54:36MRunner28
393MarcoFabiani03:54:59M#letsdomarketing 14m29
446JuliaMuir03:56:31FSLAinte 14m30
364MargaretCargey03:59:13FHorseBack UK 14m31
489EmmaWatson Mack03:59:41FHorseBack UK 14m32
417KurienJacob04:01:48M#letsdomarketing 14m33
384CarolineDawson04:02:43FBottom of The Barrel 14m34
447RitaMurdoch04:06:30FRita Murdoch 14m35
440SoniaMills04:06:45FRobRoy 14m36
343AbdulrazaqAli04:06:52MRobRoy 14m37
461AlanPorter04:10:18MGlamblers 14m38
491MarkWhitehead04:10:19MGlamblers 14m39
458BryanPeddie04:10:51M2 men 2 dogs 14m40
421PaulKelbie04:10:59M2 men 2 dogs 14m41
431JanMcintosh04:16:00FRobRoy 14m42
463LindaQuinn04:16:04FRobRoy 14m43
485BenWalker04:18:43MLivingston James Group 14m44
7FrancoisBecquaert04:18:56MEnTrustPermal 49m45
374AliClarke04:19:03FMaggie's Muppets Mayhem 14m46
226LizFrost04:19:17FRunner47
362SimonCairns04:19:28MSI/FSI 2018 Challengers 14m48
487AlexandraWatney04:21:42FSI/FSI 2018 Challengers 14m49
403LauraGilmore04:22:11FSLAinte 14m50
354JenBowker04:22:13FSLAinte 14m51
449AlexisNeil04:22:14FSLAinte 14m52
465PaulReynolds04:22:36MHelen's Brave Hero's 14m53
466EuanReynolds04:22:39MHelen's Brave Hero's 14m54
444ClareMontgomery04:24:40FRobRoy 14m55
408MichelleHeller04:26:37FBrawbags 14m56
406HeatherHamilton04:26:52FBrawbags 14m57
52SaraiKnowles04:27:32MRobRoy 49m58
426CraigLockhart04:27:48MNeed an Irishman 14m59
419DanielJones04:28:07MNeed an Irishman 14m60
448MattNash04:32:46MLivingston James Group 14m61
451MikeNoble04:33:16MLivingston James Group 14m62
502EmmaFlecher04:33:21FRunner63
376JoannaCochrane04:34:54FHorseBack UK 14m64
390BrianEakes04:35:06MLegg Mason 14m65
346GillBarker04:35:37FHorseBack UK 14m66
377SarahCochrane04:35:39FHorseBack UK 14m67
48CherylJohnston04:36:11MSLAinte 49m68
396LeviFletcher04:38:04MRobRoy 14m69
435JimMcKee04:38:06M#Ops_on_the_drops 14m70
418PhilipJennings04:38:31MRobRoy 14m71
345LisaBaker04:38:36FThe ACE Academy 14m72
360SueBurns04:38:38FRobRoy 14m73
363JaineCampbell04:39:53FHorseBack UK 14m74
381GinaCunningham04:40:04FTwo Chatty Blondes 14m75
366SusieCarnegie04:40:09FTwo Chatty Blondes 14m76
471KirstySlight04:41:21FBrawbags 14m77
492SusanWoodman04:41:35FBrawbags 14m78
410FionaHope04:42:10FRobRoy 14m79
411FraserHope04:42:11MRobRoy 14m80
453PaulO'Rourke04:42:19MRobRoy 14m81
347KellyBartlett04:42:43FRobRoy 14m82
386PaulDonachie04:43:04MRobRoy 14m83
407SaraHarrison04:45:42FLivingston James Group 14m84
356SophieRandles04:46:00FRunner85
365LesleyCarlin04:46:12FSI/FSI 2018 Challengers 14m86
478LisaTodd04:46:14FSI/FSI 2018 Challengers 14m87
493HazelWynn04:46:14FRobRoy 14m88
424DerekLauder04:46:20MRobRoy 14m89
353AmyBorthwick04:46:36FRobRoy 14m90
486ClodaghWalsh04:46:37FLivingston James Group 14m91
361MagsCairns04:47:18FRobRoy 14m92
351LynseyBlyth04:47:28FRobRoy 14m93
439KirstyMillar04:47:30FRobRoy 14m94
399DebbieGarner04:48:08FGammieGarners 14m95
427AlessandroMarello04:48:28MGammieGarners 14m96
474JosephSullivan04:49:01MRobRoy 14m97
412AileenHughes04:52:42FTeam Yana 14m98
459JanePickard04:52:44FTeam Yana 14m99
341JillAlexander04:52:51FRobRoy 14m100
481DawnTully04:55:04FRobRoy 14m101
480PatrickTully04:55:11MRobRoy 14m102
338CatrionaAitken04:55:17FI love Barbie but I love Kenmore 14m103
500DonnaLorber04:55:17MRunner104
420FelicityKeating04:55:34FBrawbags 14m105
404PaulineGordon04:55:40FBrawbags 14m106
358JanBuchan04:57:05FSchiehallie...McBeal 14m107
380MichaelCrowe04:57:09MSchiehallie...McBeal 14m108
340RobertAlexander04:57:10MSchiehallie...McBeal 14m109
375JillCochrane04:58:23FLivingston James Group 14m110
456JacquiPaterson04:59:07FRobRoy 14m111
428LaurenMarshall05:00:03FI love Barbie but I love Kenmore 14m112
342AimeeAlexander05:00:57FI love Barbie but I love Kenmore 14m113
445JaneMorrison05:01:30FRobRoy 14m114
430StevenMather05:02:52MRobRoy 14m115
370JaclynChartier05:02:55FRobRoy 14m116
1MelisssaCarrier05:04:31FRunner117
490WillieWatt05:06:59MRobRoy 14m118
477BethThomson05:09:52FRobRoy 14m119
422CarolineKelly05:09:59FRobRoy 14m120
433AndyMcClure05:10:03FRobRoy 14m121
432AngelaMcCann05:10:39FLivingston James Group 14m122
469KarenScott05:10:42FLivingston James Group 14m123
470LouiseSinclair05:13:52FRobRoy 14m124
443LauraMontgomery05:13:55FLivingston James Group 14m125
400YeGeng05:14:16M2017 NXPGraduate 14m126
339RashaAldoughaji05:16:16FRobRoy 14m127
494IanYoung05:21:44MRobRoy 14m128
401JonathanGibson05:21:46MRobRoy 14m129
464AbigailRennie05:23:00FHairy Coo's 14m130
495GrahamYoung05:23:03MHairy Coo's 14m131
162LouiseDryburgh05:23:22FI love Barbie but I love Kenmore 14m132
452AshleighO'Neil05:23:23FRobRoy 14m133
468RhonaSaunders05:25:00FRAS Solutions LTD 14m134
467RossSaunders05:25:00MRAS Solutions LTD 14m135
391KiamEsparza05:38:27MRobRoy 14m136
352AlexanderBoronkin05:38:30MRobRoy 14m137
488StephanieWatson05:39:05FTeam HR 14m138
383JohannaDavidson05:39:24FTeam HR 14m139
479SusanTorrance05:39:26FTeam HR 14m140
368TimothyCashman05:40:28MCashman Clan Climbers 14m141
423KaitlynKloeblen05:40:29FCashman Clan Climbers 14m142
369FrancesCashman05:40:31FCashman Clan Climbers 14m143
367MaggieCashman05:40:32FCashman Clan Climbers 14m144
350JacquiBirrell05:44:02FReal Estate Ramblers 14m145
472LesleySmith05:44:07FReal Estate Ramblers 14m146
385TraceyDinwoodie05:44:34FReal Estate Ramblers 14m147
398GeoffGarner05:45:52MGammieGarners 14m148
397JanetGarner05:46:05FGammieGarners 14m149
388JohnDonlin05:49:59MRobRoy 14m150
484JeanWaeber05:50:05MRobRoy 14m151
482DinaraUsmanova05:50:14FRobRoy 14m152
405JudithGrafenhorst05:50:16FRobRoy 14m153
349RuthBertram05:56:22FFortingall Hotel 14m154
475VictoriaTaylor05:56:24FFortingall Hotel 14m155
382FionaDanks05:56:25FFortingall Hotel 14m156
372KurtChristie06:00:05MRobRoy 14m157
473ShaneStewart06:00:34MRobRoy 14m158
416CharlotteIrelan-Bunting06:02:04FRobRoy 14m159
496JennyZiltener06:02:05FRobRoy 14m160
394GiovanniFazio06:08:20M2017 NXPGraduate 14m161
210Marie-AnneLe Menn06:08:55MSnappy Dragons 70m162
379ChrisConnor06:11:34MTeam America 14m163
442LouiseMoncrieff06:12:30FTeam America 14m164
438RobbieMcNab06:12:31MTeam America 14m165
387SamanthaDonaghy06:12:37F#letsdomarketing 14m166
429ClaireMarwick06:12:41FGlamblers 14m167
171SarahFingland06:37:01M#Ops_on_the_drops 70m168
54IainLobban06:43:04MI love Barbie but I love Kenmore 49mDNF
68JOhnMurdoch07:02:15MRobRoy 49mDNF

Table data was last modified at UTC: June 26 2018 19:15:34.:-robroy14km.csv